Pingryville, Massachusetts
Current Conditions -  °F | °C
As of 3:56 AM on Wednesday 22 Oct 2014 (Local Time) from KBED Reporting Station
Light Rain Light Rain  
Wind Chill: 45°   Ceiling: 500
Heat Index: 49°   Visibility: 8mi
Dew Point: 48°   Wind: 8mph
Humidity: 97%   Direction: 10°N
Pressure: 29.97"   Gusts: NA
Location:  42.5349°N, 71.4895°W
Report Text: KBED 220756Z AUTO 01007KT 8SM -RA OVC005 09/09 A2997 RMK AO2 RAB40 SLP163 P0001 T00940089 TSNO
Loading
Personal Weather Stations






























Interactive Weather Map
Tropical Storm Tracking
New forecast layout! Learn more

10-Day Weather Forecast

Advertisements
Track Severe Weather on mobile